sensor_id;sensor_type;location;lat;lon;timestamp;pressure;altitude;pressure_sealevel;temperature;humidity
75438;BME280;64015;49.392;15.582;2022-11-11T00:01:08;97193.84;;;1.47;100.00
75438;BME280;64015;49.392;15.582;2022-11-11T00:03:34;97189.56;;;1.55;100.00
75438;BME280;64015;49.392;15.582;2022-11-11T00:06:04;97191.00;;;1.57;100.00
75438;BME280;64015;49.392;15.582;2022-11-11T00:08:31;97197.78;;;1.58;100.00
75438;BME280;64015;49.392;15.582;2022-11-11T00:11:05;97205.00;;;1.56;100.00
75438;BME280;64015;49.392;15.582;2022-11-11T00:13:32;97201.41;;;1.57;100.00
75438;BME280;64015;49.392;15.582;2022-11-11T00:16:12;97211.00;;;1.57;100.00
75438;BME280;64015;49.392;15.582;2022-11-11T00:18:39;97206.13;;;1.54;100.00
75438;BME280;64015;49.392;15.582;2022-11-11T00:21:24;97208.56;;;1.55;100.00
75438;BME280;64015;49.392;15.582;2022-11-11T00:27:08;97225.56;;;1.43;100.00
75438;BME280;64015;49.392;15.582;2022-11-11T00:29:35;97221.16;;;1.43;100.00
75438;BME280;64015;49.392;15.582;2022-11-11T00:32:01;97232.22;;;1.45;100.00
75438;BME280;64015;49.392;15.582;2022-11-11T00:34:46;97227.88;;;1.38;100.00
75438;BME280;64015;49.392;15.582;2022-11-11T00:37:31;97237.16;;;1.32;100.00
75438;BME280;64015;49.392;15.582;2022-11-11T00:39:57;97233.31;;;1.28;100.00
75438;BME280;64015;49.392;15.582;2022-11-11T00:42:23;97241.09;;;1.28;100.00
75438;BME280;64015;49.392;15.582;2022-11-11T00:44:49;97242.09;;;1.27;100.00
75438;BME280;64015;49.392;15.582;2022-11-11T00:47:14;97227.84;;;1.15;100.00
75438;BME280;64015;49.392;15.582;2022-11-11T00:49:58;97233.16;;;1.22;100.00
75438;BME280;64015;49.392;15.582;2022-11-11T00:52:46;97239.19;;;1.22;100.00
75438;BME280;64015;49.392;15.582;2022-11-11T00:55:13;97238.72;;;1.19;100.00
75438;BME280;64015;49.392;15.582;2022-11-11T00:57:38;97237.44;;;1.15;100.00
75438;BME280;64015;49.392;15.582;2022-11-11T01:00:04;97241.81;;;1.14;100.00
75438;BME280;64015;49.392;15.582;2022-11-11T01:02:35;97237.00;;;1.11;100.00
75438;BME280;64015;49.392;15.582;2022-11-11T01:05:02;97233.75;;;1.09;100.00
75438;BME280;64015;49.392;15.582;2022-11-11T01:07:27;97224.97;;;1.10;100.00
75438;BME280;64015;49.392;15.582;2022-11-11T01:09:53;97224.91;;;1.18;100.00
75438;BME280;64015;49.392;15.582;2022-11-11T01:12:19;97222.38;;;1.10;100.00
75438;BME280;64015;49.392;15.582;2022-11-11T01:14:44;97218.97;;;1.09;100.00
75438;BME280;64015;49.392;15.582;2022-11-11T01:17:10;97220.97;;;0.99;100.00
75438;BME280;64015;49.392;15.582;2022-11-11T01:19:35;97226.00;;;1.01;100.00
75438;BME280;64015;49.392;15.582;2022-11-11T01:22:01;97212.66;;;1.04;100.00
75438;BME280;64015;49.392;15.582;2022-11-11T01:24:27;97223.69;;;1.06;100.00
75438;BME280;64015;49.392;15.582;2022-11-11T01:26:53;97218.72;;;0.96;100.00
75438;BME280;64015;49.392;15.582;2022-11-11T01:29:18;97220.97;;;0.99;100.00
75438;BME280;64015;49.392;15.582;2022-11-11T01:31:44;97208.84;;;0.92;100.00
75438;BME280;64015;49.392;15.582;2022-11-11T01:34:10;97212.75;;;0.88;100.00
75438;BME280;64015;49.392;15.582;2022-11-11T01:36:36;97211.78;;;0.89;100.00
75438;BME280;64015;49.392;15.582;2022-11-11T01:39:02;97209.81;;;0.91;100.00
75438;BME280;64015;49.392;15.582;2022-11-11T01:41:31;97208.53;;;0.87;100.00
75438;BME280;64015;49.392;15.582;2022-11-11T01:46:36;97203.81;;;0.90;100.00
75438;BME280;64015;49.392;15.582;2022-11-11T01:49:39;97207.22;;;0.91;100.00
75438;BME280;64015;49.392;15.582;2022-11-11T01:54:49;97205.06;;;0.94;100.00
75438;BME280;64015;49.392;15.582;2022-11-11T01:57:21;97200.63;;;1.03;100.00
75438;BME280;64015;49.392;15.582;2022-11-11T01:59:53;97203.03;;;1.35;100.00
75438;BME280;64015;49.392;15.582;2022-11-11T02:05:12;97212.56;;;1.80;100.00
75438;BME280;64015;49.392;15.582;2022-11-11T02:08:00;97209.66;;;2.28;100.00
75438;BME280;64015;49.392;15.582;2022-11-11T02:10:31;97199.59;;;2.24;100.00
75438;BME280;64015;49.392;15.582;2022-11-11T02:12:56;97214.13;;;2.04;100.00
75438;BME280;64015;49.392;15.582;2022-11-11T02:15:41;97214.03;;;1.83;100.00
75438;BME280;64015;49.392;15.582;2022-11-11T02:18:07;97222.31;;;1.64;100.00
75438;BME280;64015;49.392;15.582;2022-11-11T02:20:35;97220.47;;;1.49;100.00
75438;BME280;64015;49.392;15.582;2022-11-11T02:26:04;97233.88;;;1.38;100.00
75438;BME280;64015;49.392;15.582;2022-11-11T02:28:31;97232.13;;;1.31;100.00
75438;BME280;64015;49.392;15.582;2022-11-11T02:30:57;97224.75;;;1.20;100.00
75438;BME280;64015;49.392;15.582;2022-11-11T02:33:23;97238.66;;;1.27;100.00
75438;BME280;64015;49.392;15.582;2022-11-11T02:35:51;97228.66;;;1.16;100.00
75438;BME280;64015;49.392;15.582;2022-11-11T02:38:21;97235.53;;;1.08;100.00
75438;BME280;64015;49.392;15.582;2022-11-11T02:40:47;97236.88;;;0.96;100.00
75438;BME280;64015;49.392;15.582;2022-11-11T02:43:32;97232.06;;;0.85;100.00
75438;BME280;64015;49.392;15.582;2022-11-11T02:45:59;97231.31;;;0.77;100.00
75438;BME280;64015;49.392;15.582;2022-11-11T02:48:25;97238.66;;;0.73;100.00
75438;BME280;64015;49.392;15.582;2022-11-11T02:50:51;97232.31;;;0.67;100.00
75438;BME280;64015;49.392;15.582;2022-11-11T02:53:17;97233.66;;;0.63;100.00
75438;BME280;64015;49.392;15.582;2022-11-11T02:55:47;97228.63;;;0.62;100.00
75438;BME280;64015;49.392;15.582;2022-11-11T02:58:14;97223.59;;;0.60;100.00
75438;BME280;64015;49.392;15.582;2022-11-11T03:00:40;97224.72;;;0.58;100.00
75438;BME280;64015;49.392;15.582;2022-11-11T03:03:07;97226.19;;;0.60;100.00
75438;BME280;64015;49.392;15.582;2022-11-11T03:05:33;97220.50;;;0.57;100.00
75438;BME280;64015;49.392;15.582;2022-11-11T03:07:59;97221.50;;;0.56;100.00
75438;BME280;64015;49.392;15.582;2022-11-11T03:10:24;97216.81;;;0.51;100.00
75438;BME280;64015;49.392;15.582;2022-11-11T03:12:51;97221.84;;;0.53;100.00
75438;BME280;64015;49.392;15.582;2022-11-11T03:15:16;97222.50;;;0.47;100.00
75438;BME280;64015;49.392;15.582;2022-11-11T03:17:42;97228.03;;;0.44;100.00
75438;BME280;64015;49.392;15.582;2022-11-11T03:20:15;97230.81;;;0.42;100.00
75438;BME280;64015;49.392;15.582;2022-11-11T03:23:11;97222.19;;;0.42;100.00
75438;BME280;64015;49.392;15.582;2022-11-11T03:25:39;97229.34;;;0.40;100.00
75438;BME280;64015;49.392;15.582;2022-11-11T03:28:07;97218.84;;;0.33;100.00
75438;BME280;64015;49.392;15.582;2022-11-11T03:30:33;97209.41;;;0.32;100.00
75438;BME280;64015;49.392;15.582;2022-11-11T03:32:59;97204.56;;;0.29;100.00
75438;BME280;64015;49.392;15.582;2022-11-11T03:35:25;97214.28;;;0.35;100.00
75438;BME280;64015;49.392;15.582;2022-11-11T03:37:50;97217.53;;;0.37;100.00
75438;BME280;64015;49.392;15.582;2022-11-11T03:40:35;97216.69;;;0.45;100.00
75438;BME280;64015;49.392;15.582;2022-11-11T03:43:00;97215.06;;;0.44;100.00
75438;BME280;64015;49.392;15.582;2022-11-11T03:45:26;97215.88;;;0.44;100.00
75438;BME280;64015;49.392;15.582;2022-11-11T03:47:51;97221.22;;;0.43;100.00
75438;BME280;64015;49.392;15.582;2022-11-11T03:50:20;97233.06;;;0.45;100.00
75438;BME280;64015;49.392;15.582;2022-11-11T03:52:46;97235.28;;;0.56;100.00
75438;BME280;64015;49.392;15.582;2022-11-11T03:55:18;97242.59;;;0.61;100.00
75438;BME280;64015;49.392;15.582;2022-11-11T03:57:45;97243.06;;;0.56;100.00
75438;BME280;64015;49.392;15.582;2022-11-11T04:00:12;97247.28;;;0.57;100.00
75438;BME280;64015;49.392;15.582;2022-11-11T04:02:38;97233.38;;;0.50;100.00
75438;BME280;64015;49.392;15.582;2022-11-11T04:05:22;97229.31;;;0.48;100.00
75438;BME280;64015;49.392;15.582;2022-11-11T04:08:15;97230.66;;;0.35;100.00
75438;BME280;64015;49.392;15.582;2022-11-11T04:11:03;97219.16;;;0.30;100.00
75438;BME280;64015;49.392;15.582;2022-11-11T04:13:30;97220.44;;;0.34;100.00
75438;BME280;64015;49.392;15.582;2022-11-11T04:16:15;97229.81;;;0.43;100.00
75438;BME280;64015;49.392;15.582;2022-11-11T04:18:40;97225.28;;;0.45;100.00
75438;BME280;64015;49.392;15.582;2022-11-11T04:21:25;97229.97;;;0.50;100.00
75438;BME280;64015;49.392;15.582;2022-11-11T04:24:10;97222.97;;;0.50;100.00
75438;BME280;64015;49.392;15.582;2022-11-11T04:26:58;97218.44;;;0.52;100.00
75438;BME280;64015;49.392;15.582;2022-11-11T04:29:42;97221.03;;;0.52;100.00
75438;BME280;64015;49.392;15.582;2022-11-11T04:32:13;97229.13;;;0.57;100.00
75438;BME280;64015;49.392;15.582;2022-11-11T04:35:16;97227.97;;;0.60;100.00
75438;BME280;64015;49.392;15.582;2022-11-11T04:37:47;97225.38;;;0.60;100.00
75438;BME280;64015;49.392;15.582;2022-11-11T04:40:15;97232.84;;;0.63;100.00
75438;BME280;64015;49.392;15.582;2022-11-11T04:42:59;97249.06;;;0.65;100.00
75438;BME280;64015;49.392;15.582;2022-11-11T04:45:25;97245.13;;;0.69;100.00
75438;BME280;64015;49.392;15.582;2022-11-11T04:48:04;97233.63;;;0.71;100.00
75438;BME280;64015;49.392;15.582;2022-11-11T04:50:32;97240.38;;;0.81;100.00
75438;BME280;64015;49.392;15.582;2022-11-11T04:52:59;97242.63;;;0.84;100.00
75438;BME280;64015;49.392;15.582;2022-11-11T04:55:24;97233.25;;;0.83;100.00
75438;BME280;64015;49.392;15.582;2022-11-11T04:58:10;97244.22;;;0.93;100.00
75438;BME280;64015;49.392;15.582;2022-11-11T05:00:36;97246.31;;;0.97;100.00
75438;BME280;64015;49.392;15.582;2022-11-11T05:03:03;97237.41;;;0.92;100.00
75438;BME280;64015;49.392;15.582;2022-11-11T05:05:43;97244.53;;;0.98;100.00
75438;BME280;64015;49.392;15.582;2022-11-11T05:08:28;97239.31;;;0.98;100.00
75438;BME280;64015;49.392;15.582;2022-11-11T05:11:13;97235.09;;;0.97;100.00
75438;BME280;64015;49.392;15.582;2022-11-11T05:13:39;97242.63;;;0.92;100.00
75438;BME280;64015;49.392;15.582;2022-11-11T05:16:26;97253.00;;;0.92;100.00
75438;BME280;64015;49.392;15.582;2022-11-11T05:19:12;97249.13;;;0.88;100.00
75438;BME280;64015;49.392;15.582;2022-11-11T05:22:15;97257.88;;;0.87;100.00
75438;BME280;64015;49.392;15.582;2022-11-11T05:24:43;97254.03;;;0.83;100.00
75438;BME280;64015;49.392;15.582;2022-11-11T05:27:27;97250.78;;;0.81;100.00
75438;BME280;64015;49.392;15.582;2022-11-11T05:29:53;97257.28;;;0.77;100.00
75438;BME280;64015;49.392;15.582;2022-11-11T05:32:20;97254.22;;;0.73;100.00
75438;BME280;64015;49.392;15.582;2022-11-11T05:34:46;97259.22;;;0.74;100.00
75438;BME280;64015;49.392;15.582;2022-11-11T05:37:12;97257.81;;;0.72;100.00
75438;BME280;64015;49.392;15.582;2022-11-11T05:39:38;97256.06;;;0.64;100.00
75438;BME280;64015;49.392;15.582;2022-11-11T05:42:04;97259.25;;;0.66;100.00
75438;BME280;64015;49.392;15.582;2022-11-11T05:44:29;97262.22;;;0.63;100.00
75438;BME280;64015;49.392;15.582;2022-11-11T05:46:55;97268.84;;;0.66;100.00
75438;BME280;64015;49.392;15.582;2022-11-11T05:49:21;97262.50;;;0.68;100.00
75438;BME280;64015;49.392;15.582;2022-11-11T05:51:47;97264.97;;;0.62;100.00
75438;BME280;64015;49.392;15.582;2022-11-11T05:54:13;97270.34;;;0.60;100.00
75438;BME280;64015;49.392;15.582;2022-11-11T05:56:39;97265.94;;;0.61;100.00
75438;BME280;64015;49.392;15.582;2022-11-11T05:59:06;97270.66;;;0.57;100.00
75438;BME280;64015;49.392;15.582;2022-11-11T06:01:32;97274.56;;;0.61;100.00
75438;BME280;64015;49.392;15.582;2022-11-11T06:03:59;97271.63;;;0.56;100.00
75438;BME280;64015;49.392;15.582;2022-11-11T06:06:25;97281.84;;;0.58;100.00
75438;BME280;64015;49.392;15.582;2022-11-11T06:08:50;97275.84;;;0.57;100.00
75438;BME280;64015;49.392;15.582;2022-11-11T06:11:16;97283.97;;;0.62;100.00
75438;BME280;64015;49.392;15.582;2022-11-11T06:13:42;97272.78;;;0.54;100.00
75438;BME280;64015;49.392;15.582;2022-11-11T06:16:08;97282.34;;;0.61;100.00
75438;BME280;64015;49.392;15.582;2022-11-11T06:18:33;97292.38;;;0.72;100.00
75438;BME280;64015;49.392;15.582;2022-11-11T06:20:59;97273.84;;;0.75;100.00
75438;BME280;64015;49.392;15.582;2022-11-11T06:23:26;97289.53;;;0.90;100.00
75438;BME280;64015;49.392;15.582;2022-11-11T06:25:52;97292.59;;;0.94;100.00
75438;BME280;64015;49.392;15.582;2022-11-11T06:28:47;97272.00;;;0.84;100.00
75438;BME280;64015;49.392;15.582;2022-11-11T06:31:15;97285.44;;;0.96;100.00
75438;BME280;64015;49.392;15.582;2022-11-11T06:33:40;97286.75;;;1.00;100.00
75438;BME280;64015;49.392;15.582;2022-11-11T06:36:08;97284.44;;;1.05;100.00
75438;BME280;64015;49.392;15.582;2022-11-11T06:38:34;97290.25;;;1.07;100.00
75438;BME280;64015;49.392;15.582;2022-11-11T06:41:00;97288.16;;;1.10;100.00
75438;BME280;64015;49.392;15.582;2022-11-11T06:43:25;97292.66;;;1.17;100.00
75438;BME280;64015;49.392;15.582;2022-11-11T06:45:52;97304.16;;;1.22;100.00
75438;BME280;64015;49.392;15.582;2022-11-11T06:48:19;97297.31;;;1.29;100.00
75438;BME280;64015;49.392;15.582;2022-11-11T06:50:45;97299.50;;;1.40;100.00
75438;BME280;64015;49.392;15.582;2022-11-11T06:53:14;97289.84;;;1.49;100.00
75438;BME280;64015;49.392;15.582;2022-11-11T06:55:40;97293.22;;;1.58;100.00
75438;BME280;64015;49.392;15.582;2022-11-11T06:58:12;97300.78;;;1.67;100.00
75438;BME280;64015;49.392;15.582;2022-11-11T07:00:39;97300.09;;;1.73;100.00
75438;BME280;64015;49.392;15.582;2022-11-11T07:03:05;97299.88;;;1.83;100.00
75438;BME280;64015;49.392;15.582;2022-11-11T07:05:32;97309.88;;;1.94;100.00
75438;BME280;64015;49.392;15.582;2022-11-11T07:08:02;97303.63;;;2.03;100.00
75438;BME280;64015;49.392;15.582;2022-11-11T07:10:28;97299.97;;;2.12;100.00
75438;BME280;64015;49.392;15.582;2022-11-11T07:12:54;97306.34;;;2.24;100.00
75438;BME280;64015;49.392;15.582;2022-11-11T07:15:19;97317.94;;;2.37;100.00
75438;BME280;64015;49.392;15.582;2022-11-11T07:17:45;97312.75;;;2.51;100.00
75438;BME280;64015;49.392;15.582;2022-11-11T07:20:11;97317.69;;;2.61;100.00
75438;BME280;64015;49.392;15.582;2022-11-11T07:22:36;97319.97;;;2.64;100.00
75438;BME280;64015;49.392;15.582;2022-11-11T07:25:02;97319.22;;;2.70;100.00
75438;BME280;64015;49.392;15.582;2022-11-11T07:27:28;97326.59;;;2.81;100.00
75438;BME280;64015;49.392;15.582;2022-11-11T07:29:54;97323.38;;;2.94;100.00
75438;BME280;64015;49.392;15.582;2022-11-11T07:32:19;97317.16;;;3.10;100.00
75438;BME280;64015;49.392;15.582;2022-11-11T07:34:45;97323.94;;;3.25;100.00
75438;BME280;64015;49.392;15.582;2022-11-11T07:37:11;97322.44;;;3.31;100.00
75438;BME280;64015;49.392;15.582;2022-11-11T07:39:36;97326.78;;;3.45;100.00
75438;BME280;64015;49.392;15.582;2022-11-11T07:42:02;97328.28;;;3.54;100.00
75438;BME280;64015;49.392;15.582;2022-11-11T07:44:28;97321.94;;;3.78;100.00
75438;BME280;64015;49.392;15.582;2022-11-11T07:46:53;97329.06;;;3.91;100.00
75438;BME280;64015;49.392;15.582;2022-11-11T07:49:19;97322.66;;;3.93;100.00
75438;BME280;64015;49.392;15.582;2022-11-11T07:51:44;97332.63;;;3.83;100.00
75438;BME280;64015;49.392;15.582;2022-11-11T07:54:10;97330.19;;;3.82;100.00
75438;BME280;64015;49.392;15.582;2022-11-11T07:56:35;97327.22;;;4.06;100.00
75438;BME280;64015;49.392;15.582;2022-11-11T07:59:01;97326.31;;;3.99;100.00
75438;BME280;64015;49.392;15.582;2022-11-11T08:01:26;97333.75;;;4.17;100.00
75438;BME280;64015;49.392;15.582;2022-11-11T08:03:53;97334.66;;;4.30;100.00
75438;BME280;64015;49.392;15.582;2022-11-11T08:06:20;97329.53;;;4.43;100.00
75438;BME280;64015;49.392;15.582;2022-11-11T08:08:47;97338.44;;;4.56;100.00
75438;BME280;64015;49.392;15.582;2022-11-11T08:11:13;97346.25;;;4.77;100.00
75438;BME280;64015;49.392;15.582;2022-11-11T08:13:40;97339.94;;;4.99;100.00
75438;BME280;64015;49.392;15.582;2022-11-11T08:16:09;97345.66;;;5.16;100.00
75438;BME280;64015;49.392;15.582;2022-11-11T08:18:36;97351.56;;;5.31;100.00
75438;BME280;64015;49.392;15.582;2022-11-11T08:21:03;97354.88;;;5.53;100.00
75438;BME280;64015;49.392;15.582;2022-11-11T08:23:29;97352.50;;;5.71;100.00
75438;BME280;64015;49.392;15.582;2022-11-11T08:26:03;97350.53;;;5.86;100.00
75438;BME280;64015;49.392;15.582;2022-11-11T08:28:31;97333.41;;;5.84;100.00
75438;BME280;64015;49.392;15.582;2022-11-11T08:30:57;97348.38;;;5.96;100.00
75438;BME280;64015;49.392;15.582;2022-11-11T08:33:42;97355.25;;;6.11;100.00
75438;BME280;64015;49.392;15.582;2022-11-11T08:36:08;97353.22;;;6.13;100.00
75438;BME280;64015;49.392;15.582;2022-11-11T08:38:36;97343.97;;;6.23;100.00
75438;BME280;64015;49.392;15.582;2022-11-11T08:41:04;97346.41;;;6.38;100.00
75438;BME280;64015;49.392;15.582;2022-11-11T08:43:30;97343.16;;;6.49;100.00
75438;BME280;64015;49.392;15.582;2022-11-11T08:46:00;97344.38;;;6.66;100.00
75438;BME280;64015;49.392;15.582;2022-11-11T08:48:26;97339.47;;;6.90;100.00
75438;BME280;64015;49.392;15.582;2022-11-11T08:50:52;97335.81;;;7.10;100.00
75438;BME280;64015;49.392;15.582;2022-11-11T08:53:18;97339.75;;;7.33;100.00
75438;BME280;64015;49.392;15.582;2022-11-11T08:55:44;97336.44;;;7.57;100.00
75438;BME280;64015;49.392;15.582;2022-11-11T08:58:12;97339.63;;;7.97;99.87
75438;BME280;64015;49.392;15.582;2022-11-11T09:00:38;97337.63;;;8.55;98.23
75438;BME280;64015;49.392;15.582;2022-11-11T09:03:06;97334.72;;;9.07;93.71
75438;BME280;64015;49.392;15.582;2022-11-11T09:05:32;97317.38;;;9.54;92.05
75438;BME280;64015;49.392;15.582;2022-11-11T09:08:03;97333.34;;;10.19;89.53
75438;BME280;64015;49.392;15.582;2022-11-11T09:10:33;97334.31;;;10.71;85.68
75438;BME280;64015;49.392;15.582;2022-11-11T09:12:59;97344.72;;;11.12;81.38
75438;BME280;64015;49.392;15.582;2022-11-11T09:15:25;97347.59;;;11.22;80.48
75438;BME280;64015;49.392;15.582;2022-11-11T09:17:51;97342.44;;;11.16;80.81
75438;BME280;64015;49.392;15.582;2022-11-11T09:20:17;97344.69;;;11.47;78.75
75438;BME280;64015;49.392;15.582;2022-11-11T09:22:44;97341.91;;;11.42;78.30
75438;BME280;64015;49.392;15.582;2022-11-11T09:25:10;97343.25;;;11.16;80.20
75438;BME280;64015;49.392;15.582;2022-11-11T09:27:36;97356.22;;;10.95;80.52
75438;BME280;64015;49.392;15.582;2022-11-11T09:30:02;97360.00;;;10.87;80.51
75438;BME280;64015;49.392;15.582;2022-11-11T09:32:27;97357.34;;;10.52;81.86
75438;BME280;64015;49.392;15.582;2022-11-11T09:34:54;97366.75;;;10.48;82.32
75438;BME280;64015;49.392;15.582;2022-11-11T09:37:21;97363.63;;;10.39;82.75
75438;BME280;64015;49.392;15.582;2022-11-11T09:39:47;97364.56;;;10.57;82.98
75438;BME280;64015;49.392;15.582;2022-11-11T09:48:00;97354.38;;;13.49;67.13
75438;BME280;64015;49.392;15.582;2022-11-11T09:50:31;97357.34;;;13.53;66.77
75438;BME280;64015;49.392;15.582;2022-11-11T09:53:06;97358.75;;;12.83;69.39
75438;BME280;64015;49.392;15.582;2022-11-11T09:55:46;97351.19;;;12.92;70.02
75438;BME280;64015;49.392;15.582;2022-11-11T09:58:36;97355.22;;;12.78;70.24
75438;BME280;64015;49.392;15.582;2022-11-11T10:01:09;97356.22;;;11.81;74.99
75438;BME280;64015;49.392;15.582;2022-11-11T10:03:42;97344.09;;;11.57;76.70
75438;BME280;64015;49.392;15.582;2022-11-11T10:06:27;97343.44;;;11.38;78.33
75438;BME280;64015;49.392;15.582;2022-11-11T10:08:55;97347.22;;;11.31;78.64
75438;BME280;64015;49.392;15.582;2022-11-11T10:11:48;97352.19;;;11.15;80.41
75438;BME280;64015;49.392;15.582;2022-11-11T10:14:16;97350.72;;;10.96;80.75
75438;BME280;64015;49.392;15.582;2022-11-11T10:19:28;97345.06;;;11.04;81.03
75438;BME280;64015;49.392;15.582;2022-11-11T10:21:59;97354.03;;;11.03;81.43
75438;BME280;64015;49.392;15.582;2022-11-11T10:24:29;97346.69;;;11.05;81.58
75438;BME280;64015;49.392;15.582;2022-11-11T10:26:58;97343.69;;;11.13;79.93
75438;BME280;64015;49.392;15.582;2022-11-11T10:29:41;97354.25;;;11.13;81.22
75438;BME280;64015;49.392;15.582;2022-11-11T10:32:17;97358.94;;;11.23;78.62
75438;BME280;64015;49.392;15.582;2022-11-11T10:34:44;97365.66;;;11.02;79.39
75438;BME280;64015;49.392;15.582;2022-11-11T10:37:17;97360.69;;;11.17;79.65
75438;BME280;64015;49.392;15.582;2022-11-11T10:39:59;97354.59;;;11.17;79.58
75438;BME280;64015;49.392;15.582;2022-11-11T10:42:26;97365.16;;;11.17;79.75
75438;BME280;64015;49.392;15.582;2022-11-11T10:44:57;97370.00;;;11.08;80.12
75438;BME280;64015;49.392;15.582;2022-11-11T10:47:48;97359.78;;;11.12;80.83
75438;BME280;64015;49.392;15.582;2022-11-11T10:50:24;97356.88;;;11.25;79.27
75438;BME280;64015;49.392;15.582;2022-11-11T10:53:08;97362.09;;;12.45;74.13
75438;BME280;64015;49.392;15.582;2022-11-11T10:55:48;97352.88;;;13.36;70.15
75438;BME280;64015;49.392;15.582;2022-11-11T10:58:36;97356.47;;;13.69;67.40
75438;BME280;64015;49.392;15.582;2022-11-11T11:01:05;97360.53;;;13.98;66.99
75438;BME280;64015;49.392;15.582;2022-11-11T11:03:45;97360.44;;;14.15;65.20
75438;BME280;64015;49.392;15.582;2022-11-11T11:06:13;97355.22;;;14.52;64.03
75438;BME280;64015;49.392;15.582;2022-11-11T11:08:44;97355.56;;;15.03;60.17
75438;BME280;64015;49.392;15.582;2022-11-11T11:11:46;97347.75;;;15.75;57.33
75438;BME280;64015;49.392;15.582;2022-11-11T11:14:20;97336.47;;;15.01;58.70
75438;BME280;64015;49.392;15.582;2022-11-11T11:16:50;97333.44;;;15.39;59.49
75438;BME280;64015;49.392;15.582;2022-11-11T11:21:54;97338.47;;;15.83;56.16
75438;BME280;64015;49.392;15.582;2022-11-11T11:24:32;97338.69;;;15.76;56.06
75438;BME280;64015;49.392;15.582;2022-11-11T11:27:01;97331.00;;;15.85;55.40
75438;BME280;64015;49.392;15.582;2022-11-11T11:29:36;97324.78;;;15.54;55.58
75438;BME280;64015;49.392;15.582;2022-11-11T11:32:45;97318.81;;;16.14;53.57
75438;BME280;64015;49.392;15.582;2022-11-11T11:35:07;97318.03;;;16.34;52.47
75438;BME280;64015;49.392;15.582;2022-11-11T11:37:47;97322.56;;;16.94;50.32
75438;BME280;64015;49.392;15.582;2022-11-11T11:40:14;97308.69;;;17.02;50.14
75438;BME280;64015;49.392;15.582;2022-11-11T11:42:40;97311.94;;;16.59;51.28
75438;BME280;64015;49.392;15.582;2022-11-11T11:45:28;97313.50;;;16.24;52.39
75438;BME280;64015;49.392;15.582;2022-11-11T11:50:51;97322.41;;;15.67;54.35
75438;BME280;64015;49.392;15.582;2022-11-11T11:53:29;97324.69;;;16.11;53.17
75438;BME280;64015;49.392;15.582;2022-11-11T11:56:17;97322.00;;;16.06;52.40
75438;BME280;64015;49.392;15.582;2022-11-11T11:59:05;97322.22;;;15.94;53.19
75438;BME280;64015;49.392;15.582;2022-11-11T12:01:48;97322.34;;;15.52;54.03
75438;BME280;64015;49.392;15.582;2022-11-11T12:07:26;97323.47;;;15.56;53.09
75438;BME280;64015;49.392;15.582;2022-11-11T12:20:52;97317.53;;;17.77;47.58
75438;BME280;64015;49.392;15.582;2022-11-11T12:26:08;97309.00;;;16.70;50.50
75438;BME280;64015;49.392;15.582;2022-11-11T12:28:54;97304.16;;;16.01;52.10
75438;BME280;64015;49.392;15.582;2022-11-11T12:31:27;97308.19;;;16.29;52.35
75438;BME280;64015;49.392;15.582;2022-11-11T12:34:00;97303.09;;;16.08;51.91
75438;BME280;64015;49.392;15.582;2022-11-11T12:39:48;97321.25;;;16.21;52.70
75438;BME280;64015;49.392;15.582;2022-11-11T12:50:22;97305.84;;;17.63;48.17
75438;BME280;64015;49.392;15.582;2022-11-11T12:53:08;97294.59;;;18.15;45.71
75438;BME280;64015;49.392;15.582;2022-11-11T12:58:29;97301.50;;;19.13;44.12
75438;BME280;64015;49.392;15.582;2022-11-11T13:01:23;97303.50;;;19.26;42.42
75438;BME280;64015;49.392;15.582;2022-11-11T13:04:02;97294.22;;;19.85;41.98
75438;BME280;64015;49.392;15.582;2022-11-11T13:12:17;97302.91;;;19.77;40.69
75438;BME280;64015;49.392;15.582;2022-11-11T13:14:47;97303.94;;;19.10;42.56
75438;BME280;64015;49.392;15.582;2022-11-11T13:17:15;97295.66;;;18.53;44.22
75438;BME280;64015;49.392;15.582;2022-11-11T13:19:44;97299.38;;;18.57;44.25
75438;BME280;64015;49.392;15.582;2022-11-11T13:22:30;97295.19;;;18.75;44.30
75438;BME280;64015;49.392;15.582;2022-11-11T13:24:57;97291.81;;;18.64;43.78
75438;BME280;64015;49.392;15.582;2022-11-11T13:27:44;97296.41;;;18.54;43.58
75438;BME280;64015;49.392;15.582;2022-11-11T13:30:58;97290.19;;;18.69;43.16
75438;BME280;64015;49.392;15.582;2022-11-11T13:33:20;97276.50;;;19.47;41.79
75438;BME280;64015;49.392;15.582;2022-11-11T13:35:57;97276.88;;;20.01;40.51
75438;BME280;64015;49.392;15.582;2022-11-11T13:38:31;97271.91;;;20.46;38.90
75438;BME280;64015;49.392;15.582;2022-11-11T13:41:04;97266.44;;;20.83;38.00
75438;BME280;64015;49.392;15.582;2022-11-11T13:43:44;97265.19;;;20.62;36.83
75438;BME280;64015;49.392;15.582;2022-11-11T13:46:33;97260.19;;;20.42;37.06
75438;BME280;64015;49.392;15.582;2022-11-11T13:49:01;97263.69;;;19.86;36.86
75438;BME280;64015;49.392;15.582;2022-11-11T13:51:42;97270.84;;;19.53;37.66
75438;BME280;64015;49.392;15.582;2022-11-11T13:56:52;97273.22;;;19.07;38.75
75438;BME280;64015;49.392;15.582;2022-11-11T13:59:28;97278.09;;;18.76;39.04
75438;BME280;64015;49.392;15.582;2022-11-11T14:02:34;97286.44;;;19.22;38.91
75438;BME280;64015;49.392;15.582;2022-11-11T14:17:58;97286.63;;;16.56;45.59
75438;BME280;64015;49.392;15.582;2022-11-11T14:20:45;97290.59;;;16.03;48.18
75438;BME280;64015;49.392;15.582;2022-11-11T14:25:48;97297.16;;;15.70;47.76
75438;BME280;64015;49.392;15.582;2022-11-11T14:28:28;97300.44;;;15.25;48.32
75438;BME280;64015;49.392;15.582;2022-11-11T14:31:24;97291.44;;;14.84;49.83
75438;BME280;64015;49.392;15.582;2022-11-11T14:36:56;97282.56;;;14.63;51.44
75438;BME280;64015;49.392;15.582;2022-11-11T14:39:44;97286.13;;;14.47;52.25